Time;durP1;ratioP1;P1;durP2;ratioP2;P2;SDS_P1;SDS_P2;PMS_P1;PMS_P2;Temp;Humidity;BMP_temperature;BMP_pressure;BME280_temperature;BME280_humidity;BME280_pressure;Samples;Min_cycle;Max_cycle;Signal;HPM_P1;HPM_P2
2021/10/30 00:02:18;;;;;;;21.42;17.30;;;12.10;84.40;;;;;;4968630;28;20055;-88
2021/10/30 00:04:45;;;;;;;19.58;15.77;;;12.10;84.40;;;;;;4966072;28;20051;-89
2021/10/30 00:07:15;;;;;;;20.92;15.73;;;12.10;84.40;;;;;;4967567;28;20518;-87
2021/10/30 00:09:42;;;;;;;22.38;17.70;;;12.10;84.40;;;;;;4967402;28;20047;-88
2021/10/30 00:12:10;;;;;;;21.98;16.27;;;12.10;84.40;;;;;;4971695;28;20046;-90
2021/10/30 00:14:38;;;;;;;21.10;17.10;;;12.10;84.40;;;;;;4968372;28;20047;-89
2021/10/30 00:17:05;;;;;;;23.75;17.70;;;12.10;84.40;;;;;;4966493;28;20054;-90
2021/10/30 00:19:33;;;;;;;21.05;15.60;;;12.10;84.40;;;;;;4966360;28;20061;-89
2021/10/30 00:22:00;;;;;;;21.80;17.48;;;12.20;84.40;;;;;;4965393;28;20047;-89
2021/10/30 00:24:27;;;;;;;22.38;17.50;;;12.10;84.40;;;;;;4954517;28;20047;-90
2021/10/30 00:26:54;;;;;;;24.65;17.50;;;12.10;84.40;;;;;;4970054;28;20462;-89
2021/10/30 00:29:21;;;;;;;25.58;17.20;;;12.20;84.40;;;;;;4968659;28;20055;-89
2021/10/30 00:31:48;;;;;;;25.40;16.88;;;12.10;84.40;;;;;;4964955;28;20122;-90
2021/10/30 00:34:15;;;;;;;20.17;15.98;;;12.10;84.40;;;;;;4967168;28;20050;-90
2021/10/30 00:36:42;;;;;;;21.67;16.48;;;12.20;84.50;;;;;;4965641;28;20047;-89
2021/10/30 00:39:09;;;;;;;18.90;16.20;;;12.10;84.50;;;;;;4970709;28;20042;-88
2021/10/30 00:41:36;;;;;;;21.92;16.83;;;12.10;84.50;;;;;;4968793;28;20090;-88
2021/10/30 00:44:10;;;;;;;21.27;16.75;;;12.10;84.40;;;;;;4960535;28;20051;-88
2021/10/30 00:46:41;;;;;;;23.25;15.90;;;12.10;84.50;;;;;;4962787;28;20057;-88
2021/10/30 00:49:13;;;;;;;21.38;16.00;;;12.10;84.50;;;;;;4966422;28;20047;-89
2021/10/30 00:51:42;;;;;;;21.35;16.38;;;12.20;84.50;;;;;;4967559;28;20535;-90
2021/10/30 00:54:11;;;;;;;20.88;16.58;;;12.10;84.40;;;;;;4954419;28;20048;-89
2021/10/30 00:56:40;;;;;;;20.52;16.77;;;12.10;84.50;;;;;;4968698;28;20702;-89
2021/10/30 00:59:12;;;;;;;20.10;16.38;;;12.20;84.50;;;;;;4970506;28;20050;-89
2021/10/30 01:01:41;;;;;;;20.98;16.38;;;12.10;84.50;;;;;;4966493;28;20070;-88
2021/10/30 01:04:09;;;;;;;20.45;15.45;;;12.20;84.50;;;;;;4966318;28;20047;-88
2021/10/30 01:06:40;;;;;;;19.75;16.25;;;12.20;84.50;;;;;;4965529;28;20055;-90
2021/10/30 01:09:07;;;;;;;21.23;16.27;;;12.20;84.60;;;;;;4970310;28;20054;-90
2021/10/30 01:11:34;;;;;;;20.60;15.90;;;12.20;84.60;;;;;;4967548;28;20046;-90
2021/10/30 01:14:02;;;;;;;19.98;16.48;;;12.20;84.60;;;;;;4966423;28;20050;-89
2021/10/30 01:16:29;;;;;;;18.42;15.80;;;12.20;84.60;;;;;;4966326;28;20106;-89
2021/10/30 01:18:56;;;;;;;22.95;16.83;;;12.20;84.70;;;;;;4955573;28;20091;-90
2021/10/30 01:21:28;;;;;;;21.77;15.75;;;12.20;84.70;;;;;;4967389;28;20050;-89
2021/10/30 01:23:56;;;;;;;21.25;17.20;;;12.20;84.80;;;;;;4969697;28;20047;-87
2021/10/30 01:26:25;;;;;;;21.05;16.35;;;12.20;84.80;;;;;;4967992;28;20050;-88
2021/10/30 01:28:52;;;;;;;23.90;16.88;;;12.20;84.80;;;;;;4966210;28;20109;-89
2021/10/30 01:31:21;;;;;;;20.23;15.75;;;12.20;84.90;;;;;;4961939;28;20055;-88
2021/10/30 01:33:49;;;;;;;23.85;15.55;;;12.30;84.90;;;;;;4953959;28;20082;-88
2021/10/30 01:36:19;;;;;;;20.38;15.43;;;12.30;85.00;;;;;;4954842;28;20054;-88
2021/10/30 01:38:46;;;;;;;20.88;15.38;;;12.30;85.00;;;;;;4968772;28;20093;-88
2021/10/30 01:41:13;;;;;;;19.98;14.88;;;12.30;85.00;;;;;;4965551;28;20098;-88
2021/10/30 01:43:43;;;;;;;17.85;14.80;;;12.30;85.00;;;;;;4964456;28;20061;-88
2021/10/30 01:46:10;;;;;;;20.35;14.88;;;12.40;85.10;;;;;;4967219;28;20047;-90
2021/10/30 01:48:38;;;;;;;20.45;13.77;;;12.40;85.10;;;;;;4954047;28;20047;-89
2021/10/30 01:51:07;;;;;;;15.65;12.88;;;12.40;85.10;;;;;;4969874;28;20077;-89
2021/10/30 01:53:34;;;;;;;20.45;13.65;;;12.40;85.20;;;;;;4967837;28;20512;-88
2021/10/30 01:56:02;;;;;;;18.25;12.95;;;12.40;85.20;;;;;;4956025;28;20051;-87
2021/10/30 01:58:30;;;;;;;20.45;13.05;;;12.40;85.20;;;;;;4959458;28;20043;-88
2021/10/30 02:00:59;;;;;;;15.30;12.10;;;12.40;85.20;;;;;;4964559;28;20496;-88
2021/10/30 02:03:29;;;;;;;16.60;12.65;;;12.40;85.20;;;;;;4968471;28;20459;-88
2021/10/30 02:05:56;;;;;;;16.58;12.18;;;12.40;85.20;;;;;;4968604;28;20528;-87
2021/10/30 02:08:24;;;;;;;19.83;12.40;;;12.40;85.20;;;;;;4957082;28;20055;-89
2021/10/30 02:10:51;;;;;;;16.02;11.77;;;12.40;85.20;;;;;;4962216;28;20101;-88
2021/10/30 02:13:22;;;;;;;13.93;11.18;;;12.40;85.20;;;;;;4967056;28;20046;-88
2021/10/30 02:15:49;;;;;;;15.55;11.52;;;12.40;85.20;;;;;;4967226;28;20043;-87
2021/10/30 02:18:17;;;;;;;16.90;10.85;;;12.50;85.20;;;;;;4969766;28;20055;-88
2021/10/30 02:20:45;;;;;;;15.52;11.60;;;12.50;85.20;;;;;;4967706;28;20519;-88
2021/10/30 02:23:13;;;;;;;15.85;9.98;;;12.50;85.10;;;;;;4970510;28;20051;-87
2021/10/30 02:25:40;;;;;;;15.82;10.85;;;12.50;85.10;;;;;;4966030;28;20047;-89
2021/10/30 02:28:07;;;;;;;18.52;11.02;;;12.50;85.10;;;;;;4967273;28;20508;-89
2021/10/30 02:30:35;;;;;;;14.68;10.48;;;12.50;85.10;;;;;;4968421;28;20448;-90
2021/10/30 02:33:03;;;;;;;15.50;10.70;;;12.60;85.10;;;;;;4969662;28;20067;-89
2021/10/30 02:35:30;;;;;;;15.77;10.75;;;12.50;85.10;;;;;;4966169;28;20535;-88
2021/10/30 02:37:57;;;;;;;14.13;10.48;;;12.50;85.10;;;;;;4967270;28;20055;-90
2021/10/30 02:40:24;;;;;;;13.38;10.55;;;12.50;85.10;;;;;;4975213;28;20050;-89
2021/10/30 02:42:51;;;;;;;15.57;10.65;;;12.50;85.10;;;;;;4970537;28;20105;-91
2021/10/30 02:45:18;;;;;;;15.02;10.80;;;12.50;85.10;;;;;;4972903;28;20074;-91
2021/10/30 02:47:45;;;;;;;16.45;11.45;;;12.60;85.10;;;;;;4957527;28;20551;-93
2021/10/30 02:50:12;;;;;;;14.40;11.07;;;12.50;85.10;;;;;;4958641;28;20058;-90
2021/10/30 02:52:40;;;;;;;13.82;10.43;;;12.50;85.10;;;;;;4960790;28;20058;-91
2021/10/30 02:55:08;;;;;;;15.85;10.98;;;12.50;85.10;;;;;;4957675;28;20055;-90
2021/10/30 02:57:35;;;;;;;17.00;10.88;;;12.60;85.20;;;;;;4964207;28;20106;-91
2021/10/30 03:00:05;;;;;;;14.68;10.52;;;12.60;85.20;;;;;;4974333;28;20059;-90
2021/10/30 03:02:32;;;;;;;16.50;10.85;;;12.60;85.20;;;;;;4961842;28;20066;-89
2021/10/30 03:04:59;;;;;;;17.00;11.77;;;12.60;85.20;;;;;;4973465;28;20137;-90
2021/10/30 03:07:26;;;;;;;13.82;10.27;;;12.60;85.20;;;;;;4965120;28;20051;-91
2021/10/30 03:09:53;;;;;;;13.45;10.80;;;12.60;85.20;;;;;;4964275;28;20057;-90
2021/10/30 03:12:20;;;;;;;15.07;10.95;;;12.60;85.20;;;;;;4960403;28;20050;-91
2021/10/30 03:14:47;;;;;;;14.27;10.63;;;12.60;85.30;;;;;;4959752;28;20424;-91
2021/10/30 03:17:14;;;;;;;14.10;10.40;;;12.60;85.30;;;;;;4972653;28;20054;-91
2021/10/30 03:19:41;;;;;;;15.40;10.10;;;12.60;85.30;;;;;;4975573;28;20105;-90
2021/10/30 03:22:08;;;;;;;15.32;10.50;;;12.60;85.30;;;;;;4969652;28;20050;-90
2021/10/30 03:24:36;;;;;;;16.27;10.02;;;12.60;85.30;;;;;;4971622;28;20562;-91
2021/10/30 03:27:04;;;;;;;15.20;9.93;;;12.60;85.30;;;;;;4957866;28;20518;-91
2021/10/30 03:29:31;;;;;;;13.45;9.23;;;12.60;85.30;;;;;;4956983;28;20047;-92
2021/10/30 03:31:58;;;;;;;11.57;9.32;;;12.60;85.40;;;;;;4960038;28;20634;-91
2021/10/30 03:34:25;;;;;;;15.25;9.73;;;12.60;85.40;;;;;;4969380;28;20047;-92
2021/10/30 03:36:52;;;;;;;15.43;9.82;;;12.60;85.40;;;;;;4971141;28;20046;-92
2021/10/30 03:39:19;;;;;;;12.30;9.13;;;12.60;85.40;;;;;;4962184;28;20055;-92
2021/10/30 03:41:46;;;;;;;13.48;9.32;;;12.60;85.40;;;;;;4960007;28;20059;-91
2021/10/30 03:44:13;;;;;;;13.15;9.15;;;12.60;85.50;;;;;;4956665;28;20055;-92
2021/10/30 03:46:39;;;;;;;14.38;8.38;;;12.60;85.50;;;;;;4963856;28;20043;-92
2021/10/30 03:49:06;;;;;;;11.95;8.65;;;12.60;85.50;;;;;;4976116;28;20055;-91
2021/10/30 03:51:33;;;;;;;11.18;8.57;;;12.70;85.60;;;;;;4970031;28;20055;-92
2021/10/30 03:54:00;;;;;;;14.20;8.35;;;12.60;85.60;;;;;;4956670;28;20103;-91
2021/10/30 03:56:27;;;;;;;12.20;8.00;;;12.70;85.60;;;;;;4956673;28;20055;-91
2021/10/30 03:58:55;;;;;;;11.13;7.35;;;12.70;85.70;;;;;;4959241;28;20048;-90
2021/10/30 04:01:22;;;;;;;9.15;7.35;;;12.70;85.70;;;;;;4969322;28;20046;-91
2021/10/30 04:03:49;;;;;;;11.82;7.35;;;12.70;85.70;;;;;;4974313;28;20050;-90
2021/10/30 04:06:16;;;;;;;13.07;6.88;;;12.70;85.80;;;;;;4971118;28;20051;-90
2021/10/30 04:08:44;;;;;;;10.90;6.88;;;12.80;85.80;;;;;;4975746;28;20054;-91
2021/10/30 04:11:13;;;;;;;8.77;6.50;;;12.80;85.80;;;;;;4971883;28;20137;-91
2021/10/30 04:13:40;;;;;;;9.40;6.32;;;12.80;85.90;;;;;;4967534;28;20121;-91
2021/10/30 04:16:07;;;;;;;9.07;6.30;;;12.70;85.90;;;;;;4973184;28;20046;-90
2021/10/30 04:18:34;;;;;;;9.05;6.57;;;12.70;85.90;;;;;;4969425;28;20153;-92
2021/10/30 04:21:01;;;;;;;8.20;5.82;;;12.80;85.90;;;;;;4957657;28;20110;-90
2021/10/30 04:23:28;;;;;;;10.48;6.38;;;12.80;85.90;;;;;;4971043;28;20051;-90
2021/10/30 04:25:55;;;;;;;8.57;6.18;;;12.80;86.00;;;;;;4958003;28;20047;-91
2021/10/30 04:28:22;;;;;;;8.73;6.63;;;12.80;85.90;;;;;;4960086;28;20054;-91
2021/10/30 04:30:49;;;;;;;10.50;6.53;;;12.80;85.90;;;;;;4955965;28;20051;-92
2021/10/30 04:33:17;;;;;;;8.73;6.75;;;12.90;86.00;;;;;;4956232;28;20513;-91
2021/10/30 04:35:44;;;;;;;10.15;7.75;;;12.90;86.00;;;;;;4974517;28;20065;-90
2021/10/30 04:38:11;;;;;;;11.13;7.00;;;12.90;86.00;;;;;;4974816;28;20050;-90
2021/10/30 04:40:38;;;;;;;10.23;7.20;;;12.90;86.00;;;;;;4970325;28;20062;-91
2021/10/30 04:43:05;;;;;;;13.57;7.68;;;12.90;85.90;;;;;;4963383;28;20134;-90
2021/10/30 04:45:34;;;;;;;10.30;7.55;;;12.90;85.90;;;;;;4960918;28;20113;-90
2021/10/30 04:48:01;;;;;;;11.93;8.32;;;12.90;85.90;;;;;;4958169;28;20097;-88
2021/10/30 04:50:28;;;;;;;12.75;8.82;;;12.90;85.90;;;;;;4967706;28;20043;-90
2021/10/30 04:52:55;;;;;;;10.18;7.38;;;12.90;85.90;;;;;;4963333;28;20058;-90
2021/10/30 04:55:21;;;;;;;13.25;9.38;;;12.90;85.90;;;;;;4960770;28;20055;-93
2021/10/30 04:57:49;;;;;;;13.55;9.27;;;12.90;85.90;;;;;;4964390;28;20054;-90
2021/10/30 05:00:16;;;;;;;12.75;9.30;;;12.90;85.90;;;;;;4972828;28;20042;-90
2021/10/30 05:02:43;;;;;;;16.27;9.45;;;12.90;85.90;;;;;;4974230;28;20058;-90
2021/10/30 05:05:10;;;;;;;12.50;9.25;;;12.90;85.90;;;;;;4963023;28;20051;-91
2021/10/30 05:07:37;;;;;;;12.10;9.10;;;12.90;85.90;;;;;;4958810;28;20054;-90
2021/10/30 05:10:04;;;;;;;16.88;9.85;;;12.90;85.90;;;;;;4974544;28;20050;-92
2021/10/30 05:12:31;;;;;;;13.27;10.27;;;12.90;85.90;;;;;;4974597;28;20066;-92
2021/10/30 05:14:58;;;;;;;11.88;9.55;;;12.90;85.90;;;;;;4958234;28;20047;-90
2021/10/30 05:17:30;;;;;;;10.65;9.00;;;12.90;85.90;;;;;;4960524;28;20106;-91
2021/10/30 05:19:57;;;;;;;14.77;10.32;;;12.90;85.80;;;;;;4968406;28;20047;-92
2021/10/30 05:22:24;;;;;;;11.32;9.82;;;12.90;85.80;;;;;;4967349;28;20050;-91
2021/10/30 05:24:50;;;;;;;11.50;9.35;;;12.90;85.80;;;;;;4969077;28;20488;-91
2021/10/30 05:27:17;;;;;;;11.30;9.45;;;12.90;85.80;;;;;;4954577;28;20059;-91
2021/10/30 05:29:44;;;;;;;12.30;9.45;;;12.90;85.80;;;;;;4955425;28;20055;-92
2021/10/30 05:32:11;;;;;;;11.30;9.32;;;12.90;85.80;;;;;;4954945;28;20478;-91
2021/10/30 05:34:38;;;;;;;14.60;9.70;;;12.90;85.80;;;;;;4970335;28;20059;-90
2021/10/30 05:37:05;;;;;;;13.98;9.43;;;12.90;85.80;;;;;;4974701;28;20447;-90
2021/10/30 05:39:35;;;;;;;12.20;9.27;;;12.90;85.80;;;;;;4974723;28;20058;-92
2021/10/30 05:42:04;;;;;;;13.70;9.38;;;12.90;85.80;;;;;;4974518;28;20463;-90
2021/10/30 05:44:33;;;;;;;13.25;9.18;;;12.90;85.70;;;;;;4974682;28;20073;-91
2021/10/30 05:47:00;;;;;;;11.32;8.90;;;12.90;85.70;;;;;;4975148;28;20042;-90
2021/10/30 05:49:27;;;;;;;13.23;8.63;;;12.80;85.70;;;;;;4960499;28;20051;-90
2021/10/30 05:51:54;;;;;;;11.68;9.18;;;12.90;85.70;;;;;;4961474;28;20054;-91
2021/10/30 05:54:21;;;;;;;12.95;8.85;;;12.90;85.70;;;;;;4972597;28;20455;-91
2021/10/30 05:56:48;;;;;;;12.70;9.20;;;12.90;85.70;;;;;;4974084;28;20047;-89
2021/10/30 05:59:15;;;;;;;11.73;9.40;;;12.90;85.70;;;;;;4971274;28;20500;-91
2021/10/30 06:01:42;;;;;;;14.52;9.10;;;12.90;85.70;;;;;;4973852;28;20373;-91
2021/10/30 06:04:09;;;;;;;11.43;8.30;;;12.80;85.70;;;;;;4964676;28;20058;-91
2021/10/30 06:06:36;;;;;;;10.05;8.52;;;12.90;85.70;;;;;;4961627;28;20047;-91
2021/10/30 06:09:03;;;;;;;14.98;8.90;;;12.80;85.70;;;;;;4971504;28;20727;-90
2021/10/30 06:11:30;;;;;;;11.50;9.23;;;12.90;85.70;;;;;;4954725;28;20051;-90
2021/10/30 06:13:57;;;;;;;14.80;9.35;;;12.90;85.70;;;;;;4966330;28;20451;-91
2021/10/30 06:16:25;;;;;;;13.65;9.50;;;12.90;85.70;;;;;;4974772;28;20471;-90
2021/10/30 06:18:53;;;;;;;13.38;9.30;;;12.80;85.70;;;;;;4972451;28;20053;-89
2021/10/30 06:21:20;;;;;;;12.57;8.77;;;12.80;85.70;;;;;;4972178;28;20512;-90
2021/10/30 06:23:49;;;;;;;14.82;9.65;;;12.90;85.70;;;;;;4959936;28;20412;-89
2021/10/30 06:26:16;;;;;;;14.77;9.63;;;12.90;85.80;;;;;;4973787;28;20133;-91
2021/10/30 06:28:43;;;;;;;14.02;9.50;;;12.90;85.80;;;;;;4961528;28;20044;-90
2021/10/30 06:31:10;;;;;;;13.32;9.32;;;12.80;85.80;;;;;;4965137;28;20039;-90
2021/10/30 06:33:37;;;;;;;14.55;9.60;;;12.90;85.80;;;;;;4969683;28;20047;-90
2021/10/30 06:36:04;;;;;;;11.48;9.35;;;12.90;85.80;;;;;;4957793;28;20059;-89
2021/10/30 06:38:31;;;;;;;14.30;8.77;;;12.80;85.80;;;;;;4972131;28;20051;-92
2021/10/30 06:41:01;;;;;;;12.25;9.52;;;12.80;85.80;;;;;;4958252;28;20058;-93
2021/10/30 06:43:28;;;;;;;12.70;8.60;;;12.90;85.80;;;;;;4969989;28;20051;-91
2021/10/30 06:45:55;;;;;;;12.02;8.90;;;12.90;85.80;;;;;;4976998;28;20565;-94
2021/10/30 06:48:24;;;;;;;12.95;8.73;;;12.90;85.80;;;;;;4977131;28;20078;-92
2021/10/30 06:50:55;;;;;;;11.10;8.30;;;12.90;85.80;;;;;;4977153;28;20046;-92
2021/10/30 06:53:23;;;;;;;11.98;8.55;;;12.80;85.80;;;;;;4977314;28;20086;-92
2021/10/30 06:55:50;;;;;;;12.55;8.23;;;12.80;85.90;;;;;;4974911;28;20050;-92
2021/10/30 06:58:17;;;;;;;12.00;8.80;;;12.80;85.90;;;;;;4976718;28;20050;-92
2021/10/30 07:00:45;;;;;;;9.88;7.72;;;12.90;85.90;;;;;;4976756;28;20055;-91
2021/10/30 07:03:12;;;;;;;13.88;8.27;;;12.80;85.90;;;;;;4973328;28;20522;-92
2021/10/30 07:05:40;;;;;;;13.15;8.73;;;12.80;85.90;;;;;;4957869;28;20055;-91
2021/10/30 07:08:07;;;;;;;10.73;8.02;;;12.80;85.90;;;;;;4975712;28;20050;-91
2021/10/30 07:10:34;;;;;;;12.98;8.25;;;12.90;86.00;;;;;;4970897;28;20062;-91
2021/10/30 07:13:01;;;;;;;13.95;8.52;;;12.90;86.00;;;;;;4976621;28;20051;-92
2021/10/30 07:15:28;;;;;;;13.90;8.32;;;12.90;86.00;;;;;;4976763;28;20122;-91
2021/10/30 07:17:55;;;;;;;10.52;8.02;;;12.90;86.00;;;;;;4975127;28;20055;-90
2021/10/30 07:20:21;;;;;;;11.52;7.97;;;12.80;86.00;;;;;;4957566;28;20047;-92
2021/10/30 07:22:50;;;;;;;9.90;7.72;;;12.90;86.00;;;;;;4973165;28;20057;-90
2021/10/30 07:25:22;;;;;;;11.25;7.55;;;12.90;86.10;;;;;;4967724;28;20421;-89
2021/10/30 07:27:50;;;;;;;12.27;8.05;;;12.90;86.10;;;;;;4960876;28;20047;-89
2021/10/30 07:30:17;;;;;;;12.40;7.55;;;12.90;86.10;;;;;;4975461;28;20047;-89
2021/10/30 07:32:45;;;;;;;8.57;7.00;;;12.90;86.10;;;;;;4959661;28;20583;-92
2021/10/30 07:35:11;;;;;;;9.98;7.00;;;12.90;86.20;;;;;;4968185;28;20101;-91
2021/10/30 07:37:38;;;;;;;8.38;6.57;;;12.90;86.20;;;;;;4961492;28;20059;-87
2021/10/30 07:40:06;;;;;;;8.52;6.38;;;12.90;86.30;;;;;;4961876;28;22993;-89
2021/10/30 07:42:33;;;;;;;9.60;6.72;;;12.90;86.30;;;;;;4958362;28;20475;-87
2021/10/30 07:45:00;;;;;;;10.15;5.95;;;12.90;86.30;;;;;;4956271;28;20055;-87
2021/10/30 07:47:27;;;;;;;8.05;5.82;;;12.90;86.30;;;;;;4971478;28;20047;-88
2021/10/30 07:49:54;;;;;;;11.10;5.65;;;12.90;86.40;;;;;;4970319;28;20051;-89
2021/10/30 07:52:21;;;;;;;9.77;5.80;;;12.90;86.50;;;;;;4966133;28;20444;-91
2021/10/30 07:54:49;;;;;;;10.93;6.15;;;12.90;86.50;;;;;;4963553;28;20050;-90
2021/10/30 07:57:16;;;;;;;12.38;6.60;;;13.00;86.50;;;;;;4970971;28;20075;-92
2021/10/30 07:59:43;;;;;;;8.45;6.38;;;13.00;86.50;;;;;;4971512;28;20105;-91
2021/10/30 08:02:10;;;;;;;14.05;6.57;;;13.00;86.60;;;;;;4974146;28;20503;-90
2021/10/30 08:04:37;;;;;;;9.90;7.00;;;13.00;86.60;;;;;;4974760;28;20051;-91
2021/10/30 08:07:05;;;;;;;8.90;6.80;;;13.00;86.60;;;;;;4968857;28;20049;-92
2021/10/30 08:09:32;;;;;;;9.48;6.75;;;13.00;86.60;;;;;;4962182;28;20051;-90
2021/10/30 08:11:59;;;;;;;13.80;7.40;;;13.00;86.70;;;;;;4974174;28;20061;-92
2021/10/30 08:14:26;;;;;;;11.05;7.20;;;13.00;86.60;;;;;;4965036;28;20475;-91
2021/10/30 08:16:53;;;;;;;11.40;7.45;;;13.00;86.70;;;;;;4956201;28;20055;-92
2021/10/30 08:19:20;;;;;;;12.30;7.25;;;13.10;86.70;;;;;;4955829;28;20051;-91
2021/10/30 08:21:47;;;;;;;10.20;7.30;;;13.10;86.70;;;;;;4963727;28;20055;-91
2021/10/30 08:24:14;;;;;;;12.57;7.53;;;13.10;86.70;;;;;;4970916;28;20044;-90
2021/10/30 08:26:42;;;;;;;11.43;7.75;;;13.10;86.70;;;;;;4955795;28;20468;-91
2021/10/30 08:29:09;;;;;;;12.43;7.45;;;13.10;86.70;;;;;;4970530;28;20047;-92
2021/10/30 08:31:36;;;;;;;11.30;7.38;;;13.20;86.80;;;;;;4974606;28;20415;-89
2021/10/30 08:34:04;;;;;;;13.60;8.02;;;13.20;86.80;;;;;;4972749;28;20062;-91
2021/10/30 08:36:31;;;;;;;11.05;7.75;;;13.20;86.80;;;;;;4973457;28;20042;-91
2021/10/30 08:38:59;;;;;;;12.15;7.75;;;13.20;86.80;;;;;;4975090;28;20058;-93
2021/10/30 08:41:26;;;;;;;12.90;7.65;;;13.20;86.80;;;;;;4974888;28;20093;-92
2021/10/30 08:43:53;;;;;;;11.00;7.57;;;13.20;86.80;;;;;;4959437;28;20106;-92
2021/10/30 08:46:20;;;;;;;12.35;7.80;;;13.30;86.80;;;;;;4960103;28;20479;-91
2021/10/30 08:48:47;;;;;;;14.20;8.50;;;13.30;86.90;;;;;;4970169;28;20061;-91
2021/10/30 08:51:15;;;;;;;12.15;7.88;;;13.30;86.90;;;;;;4973813;28;20093;-89
2021/10/30 08:53:42;;;;;;;9.82;7.53;;;13.30;86.90;;;;;;4974429;28;20562;-91
2021/10/30 08:56:09;;;;;;;13.50;7.05;;;13.30;86.90;;;;;;4972512;28;20054;-90
2021/10/30 08:58:36;;;;;;;10.40;8.35;;;13.30;86.90;;;;;;4965634;28;20518;-90
2021/10/30 09:01:08;;;;;;;11.13;7.55;;;13.40;86.90;;;;;;4963414;28;20048;-91
2021/10/30 09:03:36;;;;;;;13.40;8.15;;;13.40;86.90;;;;;;4959154;28;20519;-90
2021/10/30 09:06:05;;;;;;;9.57;7.18;;;13.40;86.90;;;;;;4956879;28;20055;-90
2021/10/30 09:08:33;;;;;;;10.13;7.03;;;13.40;87.00;;;;;;4973179;28;20058;-91
2021/10/30 09:11:10;;;;;;;16.63;7.35;;;13.40;86.90;;;;;;4965982;28;20081;-90
2021/10/30 09:13:38;;;;;;;13.60;7.50;;;13.40;87.00;;;;;;4974166;28;20059;-90
2021/10/30 09:16:07;;;;;;;12.23;7.25;;;13.40;86.90;;;;;;4973144;28;20043;-91
2021/10/30 09:18:38;;;;;;;10.55;7.28;;;13.40;87.00;;;;;;4973708;28;20401;-89
2021/10/30 09:21:15;;;;;;;10.90;6.47;;;13.50;86.90;;;;;;4972551;28;20051;-90
2021/10/30 09:23:43;;;;;;;9.60;6.53;;;13.50;87.00;;;;;;4974069;28;20082;-90
2021/10/30 09:26:30;;;;;;;9.43;6.53;;;13.50;86.90;;;;;;4970388;28;20050;-91
2021/10/30 09:29:09;;;;;;;14.02;7.07;;;13.50;86.90;;;;;;4957838;28;20058;-90
2021/10/30 09:31:36;;;;;;;10.68;6.20;;;13.50;86.90;;;;;;4967483;28;20042;-88
2021/10/30 09:34:06;;;;;;;10.75;6.18;;;13.50;86.90;;;;;;4973353;28;20070;-90
2021/10/30 09:36:37;;;;;;;12.15;6.93;;;13.50;86.90;;;;;;4971343;28;20047;-90
2021/10/30 09:39:07;;;;;;;8.48;6.10;;;13.50;86.90;;;;;;4973954;28;20054;-91
2021/10/30 09:41:39;;;;;;;11.95;6.45;;;13.60;86.90;;;;;;4973695;28;20050;-91
2021/10/30 09:44:17;;;;;;;12.98;6.40;;;13.60;86.90;;;;;;4973679;28;20058;-93
2021/10/30 09:46:44;;;;;;;8.20;5.22;;;13.60;86.80;;;;;;4974259;28;20053;-91
2021/10/30 09:49:18;;;;;;;8.27;5.95;;;13.60;86.80;;;;;;4968034;28;20073;-92
2021/10/30 09:51:49;;;;;;;8.32;5.78;;;13.60;86.80;;;;;;4972573;28;20050;-91
2021/10/30 09:54:36;;;;;;;7.25;5.25;;;13.70;86.80;;;;;;4958728;28;20508;-91
2021/10/30 09:57:06;;;;;;;8.75;5.38;;;13.70;86.80;;;;;;4956445;28;20055;-90
2021/10/30 09:59:39;;;;;;;7.07;5.45;;;13.60;86.70;;;;;;4961558;28;20050;-92
2021/10/30 10:02:06;;;;;;;11.20;6.00;;;13.70;86.70;;;;;;4958302;28;20051;-92
2021/10/30 10:04:37;;;;;;;7.65;5.43;;;13.70;86.70;;;;;;4958238;28;20062;-89
2021/10/30 10:07:08;;;;;;;8.15;5.55;;;13.70;86.70;;;;;;4965081;28;20049;-90
2021/10/30 10:09:35;;;;;;;8.52;5.40;;;13.70;86.70;;;;;;4974548;28;20055;-89
2021/10/30 10:12:04;;;;;;;8.13;5.30;;;13.70;86.60;;;;;;4974149;28;20082;-88
2021/10/30 10:14:34;;;;;;;8.35;5.38;;;13.70;86.60;;;;;;4962563;28;20129;-91
2021/10/30 10:17:01;;;;;;;8.02;5.80;;;13.70;86.60;;;;;;4963032;28;20063;-90
2021/10/30 10:19:28;;;;;;;8.50;5.43;;;13.70;86.50;;;;;;4968728;28;20054;-90
2021/10/30 10:21:55;;;;;;;8.00;4.90;;;13.70;86.60;;;;;;4966688;28;20062;-92
2021/10/30 10:24:29;;;;;;;7.38;5.20;;;13.70;86.50;;;;;;4960734;28;20046;-90
2021/10/30 10:26:58;;;;;;;7.68;5.13;;;13.70;86.50;;;;;;4975235;28;20117;-88
2021/10/30 10:29:32;;;;;;;9.90;5.18;;;13.70;86.50;;;;;;4974020;28;20066;-90
2021/10/30 10:32:18;;;;;;;7.93;4.75;;;13.70;86.50;;;;;;4975918;28;20051;-90
2021/10/30 10:34:46;;;;;;;10.25;5.10;;;13.70;86.50;;;;;;4974888;28;20113;-91
2021/10/30 10:37:22;;;;;;;6.93;4.78;;;13.70;86.40;;;;;;4972360;28;20102;-93
2021/10/30 10:39:57;;;;;;;6.45;4.53;;;13.80;86.40;;;;;;4963499;28;20109;-91
2021/10/30 10:42:40;;;;;;;7.03;4.80;;;13.80;86.40;;;;;;4974042;28;20059;-91
2021/10/30 10:45:13;;;;;;;6.85;4.70;;;13.80;86.40;;;;;;4976660;28;20058;-91
2021/10/30 10:47:52;;;;;;;8.75;5.40;;;13.80;86.40;;;;;;4976849;28;20047;-90
2021/10/30 10:50:28;;;;;;;12.65;5.50;;;13.80;86.40;;;;;;4969709;28;20050;-90
2021/10/30 10:53:01;;;;;;;7.55;5.57;;;13.80;86.40;;;;;;4972135;28;20054;-87
2021/10/30 10:55:29;;;;;;;9.80;5.78;;;13.80;86.40;;;;;;4962469;28;20047;-91
2021/10/30 10:58:05;;;;;;;9.57;5.50;;;13.80;86.40;;;;;;4963535;28;20046;-89
2021/10/30 11:00:33;;;;;;;11.55;5.70;;;13.80;86.40;;;;;;4972356;28;20062;-89
2021/10/30 11:03:00;;;;;;;10.07;5.90;;;13.80;86.50;;;;;;4973786;28;20047;-91
2021/10/30 11:05:35;;;;;;;14.02;6.10;;;13.80;86.50;;;;;;4961528;28;20058;-89
2021/10/30 11:08:12;;;;;;;8.10;5.95;;;13.80;86.50;;;;;;4962085;28;20134;-89
2021/10/30 11:10:42;;;;;;;10.27;5.60;;;13.90;86.60;;;;;;4961370;28;20051;-88
2021/10/30 11:13:17;;;;;;;7.78;6.00;;;13.90;86.60;;;;;;4960341;28;20094;-90
2021/10/30 11:15:48;;;;;;;12.60;6.43;;;13.90;86.60;;;;;;4956467;28;20062;-88
2021/10/30 11:18:34;;;;;;;13.63;7.13;;;13.90;86.70;;;;;;4955900;28;20051;-89
2021/10/30 11:21:13;;;;;;;10.32;6.88;;;13.90;86.70;;;;;;4970340;28;20134;-90
2021/10/30 11:23:54;;;;;;;12.18;6.22;;;13.90;86.70;;;;;;4956010;28;20058;-85
2021/10/30 11:26:37;;;;;;;9.55;6.10;;;13.90;86.70;;;;;;4974304;28;20404;-89
2021/10/30 11:29:12;;;;;;;9.67;6.10;;;13.90;86.70;;;;;;4966061;28;20047;-90
2021/10/30 11:31:41;;;;;;;9.70;6.35;;;13.90;86.70;;;;;;4962828;28;20298;-89
2021/10/30 11:34:10;;;;;;;9.95;6.18;;;13.90;86.70;;;;;;4962545;28;20044;-90
2021/10/30 11:36:41;;;;;;;18.50;6.05;;;13.90;86.70;;;;;;4968670;28;20483;-89
2021/10/30 11:39:10;;;;;;;8.23;5.10;;;13.90;86.70;;;;;;4971488;28;20047;-89
2021/10/30 11:41:39;;;;;;;10.07;5.65;;;13.90;86.70;;;;;;4959889;28;20530;-90
2021/10/30 11:44:15;;;;;;;8.35;5.05;;;13.90;86.70;;;;;;4959693;28;20052;-90
2021/10/30 11:46:54;;;;;;;9.55;4.53;;;13.90;86.70;;;;;;4965123;28;20047;-90
2021/10/30 11:49:29;;;;;;;7.43;4.60;;;13.90;86.70;;;;;;4973022;28;20518;-90
2021/10/30 11:52:07;;;;;;;7.63;4.53;;;13.90;86.70;;;;;;4971812;28;20058;-89
2021/10/30 11:54:35;;;;;;;10.68;5.68;;;14.00;86.70;;;;;;4970731;28;20062;-91
2021/10/30 11:57:12;;;;;;;11.32;6.25;;;14.00;86.80;;;;;;4957674;28;20051;-88
2021/10/30 11:59:44;;;;;;;10.82;5.70;;;14.00;86.70;;;;;;4974407;28;20047;-92
2021/10/30 12:02:16;;;;;;;9.82;5.90;;;13.90;86.70;;;;;;4956609;28;20109;-90
2021/10/30 12:04:43;;;;;;;9.43;5.45;;;13.90;86.70;;;;;;4962794;28;20058;-93
2021/10/30 12:07:12;;;;;;;9.52;5.93;;;14.00;86.70;;;;;;4971301;28;20070;-92
2021/10/30 12:09:41;;;;;;;8.30;5.53;;;14.00;86.70;;;;;;4973290;28;20105;-91
2021/10/30 12:12:12;;;;;;;10.25;5.97;;;14.00;86.70;;;;;;4971683;28;20047;-90
2021/10/30 12:14:46;;;;;;;8.57;5.50;;;14.00;86.70;;;;;;4973875;28;20058;-89
2021/10/30 12:17:26;;;;;;;8.35;4.40;;;14.00;86.60;;;;;;4966196;28;20057;-89
2021/10/30 12:19:55;;;;;;;7.35;4.32;;;14.00;86.60;;;;;;4963090;28;20415;-89
2021/10/30 12:22:31;;;;;;;9.20;4.60;;;14.00;86.60;;;;;;4965888;28;20054;-89
2021/10/30 12:25:08;;;;;;;8.45;4.63;;;14.00;86.60;;;;;;4967728;28;20046;-89
2021/10/30 12:27:37;;;;;;;8.00;4.70;;;14.00;86.50;;;;;;4957064;28;20537;-89
2021/10/30 12:30:09;;;;;;;7.07;4.45;;;14.00;86.60;;;;;;4970328;28;20509;-87
2021/10/30 12:32:44;;;;;;;9.35;4.55;;;14.00;86.50;;;;;;4958089;28;20047;-88
2021/10/30 12:35:32;;;;;;;6.28;4.38;;;14.00;86.50;;;;;;4971048;28;20050;-88
2021/10/30 12:38:19;;;;;;;8.57;4.40;;;14.00;86.50;;;;;;4964925;28;20047;-87
2021/10/30 12:40:49;;;;;;;11.68;4.28;;;14.00;86.50;;;;;;4960866;28;20054;-88
2021/10/30 12:43:26;;;;;;;9.20;4.30;;;14.00;86.50;;;;;;4959074;28;20500;-90
2021/10/30 12:46:01;;;;;;;9.40;4.82;;;14.00;86.50;;;;;;4959139;28;20057;-87